Terminal Aerodrome Forecast
Issued by NWS

Home | Current Version | Previous Version | Graphics & Text | Print | Product List | Glossary On
Versions: 1 2 3 4 5 6 7 8 9 10 11 12 13
783
FTUS45 KGGW 201135
TAFSDY
TAF
KSDY 201135Z 2012/2112 VRB05KT P6SM VCSH OVC050
     FM201600 31005KT P6SM BKN060
     FM201900 33012KT P6SM FEW130
     FM210300 01008KT P6SM SCT200
     FM210600 05007KT P6SM BKN150=

USA.gov is the U.S. government's official web portal to all federal, state and local government web resources and services.